createdAt,value
2019-04-30T00:02:02.469Z,28.53
2019-04-30T00:04:40.555Z,27.30
2019-04-30T00:07:14.697Z,25.67
2019-04-30T00:09:41.532Z,28.60
2019-04-30T00:12:11.328Z,24.60
2019-04-30T00:14:41.307Z,26.43
2019-04-30T00:17:15.804Z,26.50
2019-04-30T00:19:42.120Z,25.90
2019-04-30T00:22:11.521Z,25.63
2019-04-30T00:24:46.898Z,24.83
2019-04-30T00:27:12.065Z,28.43
2019-04-30T00:29:41.443Z,32.27
2019-04-30T00:32:10.804Z,28.87
2019-04-30T00:34:40.220Z,25.70
2019-04-30T00:37:17.224Z,24.13
2019-04-30T00:39:51.167Z,23.50
2019-04-30T00:42:23.925Z,24.30
2019-04-30T00:44:49.325Z,29.85
2019-04-30T00:47:19.056Z,23.40
2019-04-30T00:49:52.289Z,27.07
2019-04-30T00:52:20.212Z,27.80
2019-04-30T00:54:51.504Z,34.43
2019-04-30T00:57:21.653Z,24.93
2019-04-30T00:59:51.041Z,27.85
2019-04-30T01:02:48.477Z,27.30
2019-04-30T01:05:19.752Z,30.90
2019-04-30T01:07:51.852Z,29.95
2019-04-30T01:10:24.837Z,32.38
2019-04-30T01:12:52.967Z,30.90
2019-04-30T01:15:24.895Z,33.93
2019-04-30T01:17:54.953Z,28.00
2019-04-30T01:20:30.960Z,28.63
2019-04-30T01:22:58.555Z,28.50
2019-04-30T01:25:29.974Z,30.30
2019-04-30T01:27:59.790Z,28.97
2019-04-30T01:30:29.281Z,31.23
2019-04-30T01:33:01.058Z,35.43
2019-04-30T01:35:32.855Z,33.87
2019-04-30T01:38:11.213Z,35.40
2019-04-30T01:40:47.440Z,35.80
2019-04-30T01:43:15.173Z,40.17
2019-04-30T01:45:46.113Z,41.97
2019-04-30T01:48:15.713Z,40.67
2019-04-30T01:50:46.083Z,43.10
2019-04-30T01:53:18.646Z,39.53
2019-04-30T01:55:55.293Z,37.70
2019-04-30T01:58:34.844Z,40.80
2019-04-30T02:01:09.405Z,44.85
2019-04-30T02:03:41.860Z,43.30
2019-04-30T02:06:12.173Z,43.97
2019-04-30T02:08:46.629Z,39.93
2019-04-30T02:11:18.950Z,41.35
2019-04-30T02:13:49.192Z,41.00
2019-04-30T02:16:23.579Z,43.73
2019-04-30T02:18:59.679Z,36.70
2019-04-30T02:21:35.317Z,47.33
2019-04-30T02:24:04.705Z,44.77
2019-04-30T02:26:39.475Z,40.05
2019-04-30T02:29:16.728Z,37.60
2019-04-30T02:31:50.441Z,48.00
2019-04-30T02:34:35.432Z,37.17
2019-04-30T02:37:21.054Z,41.33
2019-04-30T02:39:51.783Z,37.50
2019-04-30T02:42:24.514Z,42.00
2019-04-30T02:44:54.460Z,45.63
2019-04-30T02:47:26.587Z,41.57
2019-04-30T02:50:11.584Z,42.43
2019-04-30T02:52:32.007Z,44.73
2019-04-30T02:55:04.610Z,42.47
2019-04-30T02:57:40.088Z,42.87
2019-04-30T03:00:20.003Z,41.63
2019-04-30T03:02:50.473Z,47.87
2019-04-30T03:05:22.710Z,44.90
2019-04-30T03:07:53.725Z,42.20
2019-04-30T03:10:30.366Z,43.50
2019-04-30T03:13:00.179Z,45.07
2019-04-30T03:15:32.353Z,43.43
2019-04-30T03:18:19.605Z,50.67
2019-04-30T03:21:12.077Z,52.50
2019-04-30T03:23:43.719Z,48.87
2019-04-30T03:26:19.829Z,49.60
2019-04-30T03:28:49.399Z,49.63
2019-04-30T03:31:22.613Z,56.80
2019-04-30T03:33:52.671Z,53.37
2019-04-30T03:36:32.614Z,56.00
2019-04-30T03:39:00.477Z,56.30
2019-04-30T03:41:33.503Z,54.97
2019-04-30T03:44:21.058Z,57.23
2019-04-30T03:46:40.075Z,63.60
2019-04-30T03:49:13.408Z,55.73
2019-04-30T03:51:45.203Z,55.63
2019-04-30T03:54:16.208Z,52.35
2019-04-30T03:56:51.044Z,55.70
2019-04-30T03:59:26.125Z,58.60
2019-04-30T04:02:09.414Z,53.73
2019-04-30T04:04:52.093Z,52.00
2019-04-30T04:07:39.475Z,50.52
2019-04-30T04:10:19.528Z,52.67
2019-04-30T04:12:49.968Z,53.23
2019-04-30T04:15:20.726Z,53.17
2019-04-30T04:17:51.256Z,51.00
2019-04-30T04:20:24.891Z,48.07
2019-04-30T04:25:20.470Z,53.63
2019-04-30T04:27:51.437Z,47.63
2019-04-30T04:30:20.790Z,48.78
2019-04-30T04:32:50.677Z,48.78
2019-04-30T04:35:21.086Z,49.70
2019-04-30T04:37:54.241Z,50.23
2019-04-30T04:40:26.294Z,45.43
2019-04-30T04:42:56.483Z,45.00
2019-04-30T04:45:30.565Z,41.73
2019-04-30T04:48:00.373Z,44.93
2019-04-30T04:50:30.248Z,44.85
2019-04-30T04:53:00.494Z,45.87
2019-04-30T04:55:31.870Z,42.05
2019-04-30T04:58:04.138Z,40.90
2019-04-30T05:00:34.414Z,38.87
2019-04-30T05:03:12.838Z,41.37
2019-04-30T05:05:43.929Z,42.17
2019-04-30T05:08:14.126Z,39.20
2019-04-30T05:10:45.309Z,36.13
2019-04-30T05:13:16.198Z,45.30
2019-04-30T05:15:45.585Z,43.10
2019-04-30T05:18:16.281Z,33.23
2019-04-30T05:20:45.701Z,32.23
2019-04-30T05:23:16.628Z,39.03
2019-04-30T05:25:46.216Z,37.57
2019-04-30T05:28:18.942Z,45.25
2019-04-30T05:30:49.385Z,37.45
2019-04-30T05:33:19.454Z,34.07
2019-04-30T05:35:49.618Z,37.10
2019-04-30T05:38:24.459Z,32.80
2019-04-30T05:40:54.758Z,34.20
2019-04-30T05:43:28.838Z,41.80
2019-04-30T05:46:00.720Z,38.60
2019-04-30T05:48:30.147Z,35.95
2019-04-30T05:50:59.921Z,39.03
2019-04-30T05:53:29.326Z,37.97
2019-04-30T05:56:00.065Z,49.97
2019-04-30T05:58:34.467Z,41.50
2019-04-30T06:01:03.765Z,44.40
2019-04-30T06:03:33.468Z,44.60
2019-04-30T06:06:03.637Z,62.67
2019-04-30T06:08:40.580Z,44.00
2019-04-30T06:11:30.126Z,41.87
2019-04-30T06:14:18.662Z,45.00
2019-04-30T06:17:06.118Z,47.27
2019-04-30T06:19:36.212Z,53.67
2019-04-30T06:22:08.624Z,40.87
2019-04-30T06:24:42.649Z,42.48
2019-04-30T06:27:13.603Z,47.13
2019-04-30T06:29:46.257Z,45.93
2019-04-30T06:32:18.648Z,47.75
2019-04-30T06:34:50.137Z,44.77
2019-04-30T06:37:21.373Z,46.10
2019-04-30T06:39:51.700Z,47.23
2019-04-30T06:42:22.060Z,46.07
2019-04-30T06:44:53.705Z,47.33
2019-04-30T06:47:32.779Z,37.35
2019-04-30T06:49:55.624Z,40.67
2019-04-30T06:52:29.225Z,37.63
2019-04-30T06:54:59.660Z,38.90
2019-04-30T06:57:29.867Z,44.10
2019-04-30T06:59:59.696Z,41.57
2019-04-30T07:02:30.947Z,43.27
2019-04-30T07:05:00.467Z,43.30
2019-04-30T07:07:38.708Z,38.98
2019-04-30T07:10:10.188Z,42.80
2019-04-30T07:12:59.009Z,39.63
2019-04-30T07:15:29.672Z,35.87
2019-04-30T07:17:59.334Z,38.60
2019-04-30T07:20:29.154Z,38.00
2019-04-30T07:23:02.969Z,41.27
2019-04-30T07:25:32.089Z,40.03
2019-04-30T07:28:01.481Z,52.80
2019-04-30T07:30:39.692Z,46.67
2019-04-30T07:33:12.716Z,35.77
2019-04-30T07:35:42.694Z,35.87
2019-04-30T07:38:19.217Z,30.82
2019-04-30T07:40:49.304Z,30.12
2019-04-30T07:43:22.388Z,34.27
2019-04-30T07:45:52.512Z,29.47
2019-04-30T07:48:26.457Z,25.92
2019-04-30T07:50:55.609Z,30.10
2019-04-30T07:53:25.661Z,27.30
2019-04-30T07:55:58.788Z,27.20
2019-04-30T07:58:29.875Z,30.40
2019-04-30T08:00:59.965Z,25.10
2019-04-30T08:03:50.050Z,23.57
2019-04-30T08:06:22.371Z,22.57
2019-04-30T08:08:57.284Z,23.90
2019-04-30T08:11:26.456Z,24.00
2019-04-30T08:14:00.829Z,23.98
2019-04-30T08:16:38.593Z,22.70
2019-04-30T08:19:09.114Z,26.40
2019-04-30T08:21:39.221Z,29.13
2019-04-30T08:24:09.410Z,27.63
2019-04-30T08:26:41.248Z,23.27
2019-04-30T08:29:11.710Z,22.67
2019-04-30T08:31:42.253Z,20.95
2019-04-30T08:34:11.640Z,23.60
2019-04-30T08:36:41.068Z,22.47
2019-04-30T08:39:11.976Z,20.40
2019-04-30T08:41:44.160Z,24.83
2019-04-30T08:44:16.858Z,25.57
2019-04-30T08:46:49.071Z,28.62
2019-04-30T08:49:19.900Z,27.73
2019-04-30T08:51:52.060Z,25.73
2019-04-30T08:54:21.503Z,22.52
2019-04-30T08:56:50.865Z,24.20
2019-04-30T08:59:21.251Z,25.43
2019-04-30T09:01:58.752Z,23.73
2019-04-30T09:04:31.843Z,23.60
2019-04-30T09:07:02.155Z,21.40
2019-04-30T09:09:32.132Z,24.00
2019-04-30T09:12:01.544Z,21.07
2019-04-30T09:14:32.425Z,17.43
2019-04-30T09:17:02.444Z,23.13
2019-04-30T09:19:33.268Z,15.00
2019-04-30T09:22:11.052Z,14.07
2019-04-30T09:24:35.655Z,15.18
2019-04-30T09:27:05.589Z,17.30
2019-04-30T09:29:35.997Z,18.35
2019-04-30T09:32:08.974Z,19.30
2019-04-30T09:34:40.963Z,20.70
2019-04-30T09:37:11.042Z,20.90
2019-04-30T09:39:42.584Z,24.47
2019-04-30T09:42:13.400Z,21.35
2019-04-30T09:44:45.819Z,27.77
2019-04-30T09:47:17.375Z,24.73
2019-04-30T09:49:49.192Z,24.70
2019-04-30T09:52:21.762Z,22.22
2019-04-30T09:54:52.792Z,23.83
2019-04-30T09:57:23.100Z,24.93
2019-04-30T09:59:54.589Z,24.50
2019-04-30T10:02:24.727Z,25.50
2019-04-30T10:04:56.480Z,27.65
2019-04-30T10:07:26.738Z,26.90
2019-04-30T10:09:58.925Z,24.40
2019-04-30T10:12:29.378Z,29.48
2019-04-30T10:15:03.393Z,33.43
2019-04-30T10:17:36.992Z,26.70
2019-04-30T10:20:09.740Z,24.37
2019-04-30T10:22:40.128Z,27.77
2019-04-30T10:25:12.324Z,32.60
2019-04-30T10:27:41.716Z,28.80
2019-04-30T10:30:12.861Z,30.40
2019-04-30T10:32:42.277Z,30.17
2019-04-30T10:35:13.136Z,25.60
2019-04-30T10:37:42.961Z,29.37
2019-04-30T10:40:13.832Z,31.57
2019-04-30T10:42:43.742Z,30.03
2019-04-30T10:45:16.296Z,34.53
2019-04-30T10:47:46.515Z,35.23
2019-04-30T10:50:17.874Z,32.28
2019-04-30T10:52:49.153Z,32.83
2019-04-30T10:55:20.049Z,31.77
2019-04-30T10:57:50.287Z,36.90
2019-04-30T11:00:21.709Z,37.73
2019-04-30T11:02:51.104Z,30.88
2019-04-30T11:05:21.132Z,29.02
2019-04-30T11:07:53.495Z,31.13
2019-04-30T11:10:25.231Z,34.43
2019-04-30T11:12:54.832Z,38.07
2019-04-30T11:15:24.228Z,29.33
2019-04-30T11:17:53.783Z,23.40
2019-04-30T11:20:26.390Z,26.80
2019-04-30T11:22:56.374Z,30.70
2019-04-30T11:25:30.642Z,28.30
2019-04-30T11:27:59.463Z,26.37
2019-04-30T11:30:30.678Z,28.60
2019-04-30T11:33:00.374Z,27.73
2019-04-30T11:35:30.856Z,26.70
2019-04-30T11:38:00.796Z,23.47
2019-04-30T11:40:36.832Z,32.47
2019-04-30T11:43:06.519Z,29.37
2019-04-30T11:46:21.494Z,24.27
2019-04-30T11:48:54.089Z,26.80
2019-04-30T11:51:26.934Z,25.10
2019-04-30T11:53:55.662Z,23.63
2019-04-30T11:56:27.087Z,27.50
2019-04-30T11:58:58.921Z,24.17
2019-04-30T12:01:31.029Z,23.47
2019-04-30T12:04:00.808Z,23.50
2019-04-30T12:06:30.462Z,23.50
2019-04-30T12:09:20.115Z,26.90
2019-04-30T12:11:52.066Z,23.70
2019-04-30T12:14:22.574Z,20.10
2019-04-30T12:16:52.273Z,26.70
2019-04-30T12:19:21.660Z,24.90
2019-04-30T12:21:51.048Z,23.42
2019-04-30T12:24:20.485Z,22.27
2019-04-30T12:26:49.872Z,21.57
2019-04-30T12:29:20.976Z,24.80
2019-04-30T12:31:50.344Z,24.03
2019-04-30T12:34:21.175Z,24.27
2019-04-30T12:36:51.651Z,21.70
2019-04-30T12:39:21.565Z,23.53
2019-04-30T12:41:51.153Z,21.50
2019-04-30T12:44:20.542Z,31.27
2019-04-30T12:46:52.084Z,29.70
2019-04-30T12:49:22.577Z,24.57
2019-04-30T12:52:08.773Z,23.83
2019-04-30T12:54:52.054Z,25.13
2019-04-30T12:57:35.613Z,28.15
2019-04-30T13:00:10.000Z,23.90
2019-04-30T13:02:40.538Z,26.40
2019-04-30T13:05:11.036Z,25.90
2019-04-30T13:07:49.550Z,24.20
2019-04-30T13:10:20.127Z,24.60
2019-04-30T13:12:52.679Z,25.60
2019-04-30T13:15:24.228Z,23.10
2019-04-30T13:17:58.414Z,29.77
2019-04-30T13:20:29.848Z,24.90
2019-04-30T13:23:00.474Z,31.07
2019-04-30T13:25:35.187Z,22.30
2019-04-30T13:28:06.048Z,26.30
2019-04-30T13:30:36.363Z,24.53
2019-04-30T13:33:21.720Z,28.57
2019-04-30T13:35:51.177Z,29.27
2019-04-30T13:38:47.491Z,28.07
2019-04-30T13:41:39.639Z,23.70
2019-04-30T13:44:13.371Z,32.33
2019-04-30T13:46:42.963Z,27.17
2019-04-30T13:55:53.093Z,21.27
2019-04-30T13:58:23.444Z,29.63
2019-04-30T14:00:52.863Z,28.07
2019-04-30T14:03:39.048Z,33.47
2019-04-30T14:06:10.375Z,24.77
2019-04-30T14:08:45.063Z,29.93
2019-04-30T14:11:19.003Z,25.63
2019-04-30T14:13:48.535Z,26.50
2019-04-30T14:16:18.064Z,22.03
2019-04-30T14:18:48.808Z,34.73
2019-04-30T14:21:19.354Z,27.57
2019-04-30T14:23:49.609Z,26.37
2019-04-30T14:26:19.407Z,25.03
2019-04-30T14:28:53.546Z,28.97
2019-04-30T14:31:26.449Z,26.90
2019-04-30T14:33:56.037Z,28.70
2019-04-30T14:36:26.008Z,24.10
2019-04-30T14:39:13.620Z,26.83
2019-04-30T14:41:33.682Z,23.80
2019-04-30T14:44:11.025Z,24.87
2019-04-30T14:46:50.920Z,27.40
2019-04-30T14:50:01.580Z,26.10
2019-04-30T14:52:26.827Z,29.30
2019-04-30T14:55:12.824Z,29.20
2019-04-30T14:57:56.642Z,26.17
2019-04-30T15:00:59.345Z,25.45
2019-04-30T15:03:30.308Z,30.43
2019-04-30T15:06:01.822Z,27.30
2019-04-30T15:08:33.132Z,30.20
2019-04-30T15:11:03.749Z,30.97
2019-04-30T15:13:33.569Z,26.10
2019-04-30T15:16:03.414Z,28.10
2019-04-30T15:18:32.820Z,25.97
2019-04-30T15:21:02.492Z,26.00
2019-04-30T15:23:58.711Z,29.47
2019-04-30T15:26:25.128Z,32.13
2019-04-30T15:29:00.712Z,33.90
2019-04-30T15:31:30.849Z,32.73
2019-04-30T15:34:06.146Z,32.10
2019-04-30T15:36:39.323Z,29.80
2019-04-30T15:39:17.806Z,29.10
2019-04-30T15:41:50.917Z,36.63
2019-04-30T15:44:21.261Z,29.90
2019-04-30T15:46:52.398Z,30.87
2019-04-30T15:49:24.882Z,25.50
2019-04-30T15:51:55.617Z,28.07
2019-04-30T15:54:29.498Z,26.63
2019-04-30T15:57:00.570Z,34.43
2019-04-30T15:59:34.941Z,32.75
2019-04-30T16:02:12.233Z,28.77
2019-04-30T16:05:00.212Z,33.70
2019-04-30T16:07:31.441Z,28.40
2019-04-30T16:10:20.457Z,26.80
2019-04-30T16:13:09.684Z,31.37
2019-04-30T16:15:40.371Z,36.20
2019-04-30T16:18:09.828Z,29.70
2019-04-30T16:20:43.739Z,29.07
2019-04-30T16:23:13.172Z,28.27
2019-04-30T16:25:43.051Z,28.70
2019-04-30T16:28:14.082Z,25.67
2019-04-30T16:30:44.205Z,25.70
2019-04-30T16:33:13.721Z,37.47
2019-04-30T16:35:43.890Z,28.50
2019-04-30T16:38:18.377Z,34.63
2019-04-30T16:40:48.841Z,26.50
2019-04-30T16:43:20.270Z,26.20
2019-04-30T16:45:49.824Z,28.93
2019-04-30T16:48:19.801Z,40.97
2019-04-30T16:50:51.236Z,30.33
2019-04-30T16:53:21.530Z,29.70
2019-04-30T16:55:50.862Z,30.30
2019-04-30T16:58:21.556Z,29.90
2019-04-30T17:00:51.652Z,35.00
2019-04-30T17:03:34.116Z,33.83
2019-04-30T17:06:10.968Z,30.77
2019-04-30T17:08:45.961Z,33.37
2019-04-30T17:11:38.875Z,27.00
2019-04-30T17:14:11.422Z,28.77
2019-04-30T17:16:40.886Z,31.90
2019-04-30T17:19:11.971Z,28.00
2019-04-30T17:21:41.609Z,29.60
2019-04-30T17:24:13.835Z,35.37
2019-04-30T17:26:46.036Z,34.30
2019-04-30T17:29:20.081Z,33.13
2019-04-30T17:31:49.714Z,31.90
2019-04-30T17:34:19.287Z,38.17
2019-04-30T17:36:49.578Z,30.57
2019-04-30T17:39:20.373Z,33.47
2019-04-30T17:41:50.004Z,38.67
2019-04-30T17:44:19.408Z,31.77
2019-04-30T17:46:49.777Z,31.07
2019-04-30T17:49:22.381Z,28.60
2019-04-30T17:51:52.397Z,29.07
2019-04-30T17:54:21.786Z,29.52
2019-04-30T17:56:51.204Z,32.27
2019-04-30T17:59:21.410Z,31.30
2019-04-30T18:01:59.821Z,32.77
2019-04-30T18:04:32.291Z,30.57
2019-04-30T18:07:03.042Z,32.13
2019-04-30T18:09:33.477Z,27.83
2019-04-30T18:12:05.075Z,36.13
2019-04-30T18:14:34.884Z,30.90
2019-04-30T18:17:04.765Z,31.53
2019-04-30T18:19:59.422Z,32.23
2019-04-30T18:22:46.530Z,26.90
2019-04-30T18:25:40.292Z,27.54
2019-04-30T18:28:12.942Z,25.73
2019-04-30T18:30:46.342Z,32.20
2019-04-30T18:33:15.982Z,31.53
2019-04-30T18:35:48.637Z,24.00
2019-04-30T18:38:25.279Z,28.37
2019-04-30T18:41:01.068Z,31.07
2019-04-30T18:43:30.881Z,30.03
2019-04-30T18:46:02.090Z,31.50
2019-04-30T18:48:33.036Z,34.87
2019-04-30T18:51:23.493Z,45.47
2019-04-30T18:53:39.743Z,27.83
2019-04-30T18:56:14.427Z,38.00
2019-04-30T18:58:43.615Z,28.33
2019-04-30T19:01:13.719Z,30.53
2019-04-30T19:03:46.375Z,27.93
2019-04-30T19:06:26.225Z,41.20
2019-04-30T19:09:29.725Z,37.13
2019-04-30T19:12:08.551Z,38.87
2019-04-30T19:14:49.319Z,34.43
2019-04-30T19:17:39.321Z,35.80
2019-04-30T19:20:25.472Z,30.83
2019-04-30T19:22:57.328Z,27.60
2019-04-30T19:25:28.914Z,38.17
2019-04-30T19:28:11.209Z,35.93
2019-04-30T19:30:36.422Z,26.90
2019-04-30T19:33:05.961Z,30.37
2019-04-30T19:35:35.429Z,32.45
2019-04-30T19:38:05.876Z,28.63
2019-04-30T19:40:35.496Z,30.35
2019-04-30T19:43:05.230Z,30.60
2019-04-30T19:45:40.378Z,27.05
2019-04-30T19:48:16.020Z,31.67
2019-04-30T19:50:46.525Z,32.67
2019-04-30T19:53:21.975Z,32.63
2019-04-30T19:55:51.200Z,30.40
2019-04-30T19:58:29.406Z,31.87
2019-04-30T20:00:52.940Z,31.83
2019-04-30T20:03:22.425Z,38.73
2019-04-30T20:05:53.775Z,30.83
2019-04-30T20:08:23.385Z,34.70
2019-04-30T20:10:55.573Z,31.33
2019-04-30T20:13:36.232Z,33.60
2019-04-30T20:15:59.501Z,38.90
2019-04-30T20:18:29.574Z,32.50
2019-04-30T20:21:01.481Z,31.43
2019-04-30T20:23:32.951Z,32.80
2019-04-30T20:26:03.491Z,36.13
2019-04-30T20:28:41.411Z,31.67
2019-04-30T20:31:05.677Z,33.40
2019-04-30T20:33:36.600Z,38.85
2019-04-30T20:36:10.274Z,36.93
2019-04-30T20:39:04.367Z,38.27
2019-04-30T20:41:35.789Z,33.47
2019-04-30T20:44:06.636Z,40.43
2019-04-30T20:46:41.059Z,33.07
2019-04-30T20:49:11.590Z,37.73
2019-04-30T20:51:53.541Z,33.20
2019-04-30T20:54:19.003Z,39.50
2019-04-30T20:56:51.017Z,33.37
2019-04-30T20:59:20.694Z,38.83
2019-04-30T21:01:50.142Z,33.70
2019-04-30T21:04:21.323Z,39.33
2019-04-30T21:06:53.856Z,35.43
2019-04-30T21:09:23.310Z,36.40
2019-04-30T21:11:54.446Z,37.17
2019-04-30T21:14:26.607Z,33.23
2019-04-30T21:16:56.168Z,35.23
2019-04-30T21:19:28.455Z,35.67
2019-04-30T21:21:59.562Z,36.07
2019-04-30T21:24:30.920Z,34.57
2019-04-30T21:27:02.099Z,32.30
2019-04-30T21:29:34.447Z,33.87
2019-04-30T21:32:29.625Z,34.93
2019-04-30T21:35:36.027Z,36.75
2019-04-30T21:38:06.269Z,38.97
2019-04-30T21:40:36.765Z,41.83
2019-04-30T21:43:06.345Z,34.80
2019-04-30T21:45:39.887Z,38.83
2019-04-30T21:48:10.285Z,32.93
2019-04-30T21:50:40.164Z,32.20
2019-04-30T21:53:10.506Z,34.17
2019-04-30T21:55:41.446Z,35.67
2019-04-30T21:58:10.784Z,44.93
2019-04-30T22:01:04.741Z,35.55
2019-04-30T22:03:35.208Z,34.98
2019-04-30T22:06:04.732Z,35.90
2019-04-30T22:08:38.692Z,37.95
2019-04-30T22:11:09.608Z,35.10
2019-04-30T22:13:40.069Z,39.00
2019-04-30T22:16:13.576Z,37.60
2019-04-30T22:18:45.104Z,34.38
2019-04-30T22:21:16.070Z,31.97
2019-04-30T22:23:45.746Z,37.37
2019-04-30T22:26:18.723Z,40.17
2019-04-30T22:28:49.366Z,37.67
2019-04-30T22:31:19.957Z,35.25
2019-04-30T22:33:50.001Z,35.40
2019-04-30T22:36:33.134Z,37.80
2019-04-30T22:39:20.440Z,39.33
2019-04-30T22:41:50.008Z,37.13
2019-04-30T22:44:19.928Z,39.30
2019-04-30T22:46:49.753Z,36.83
2019-04-30T22:49:19.135Z,36.80
2019-04-30T22:51:48.545Z,37.87
2019-04-30T22:54:18.097Z,41.47
2019-04-30T22:57:07.270Z,40.87
2019-04-30T22:59:49.026Z,37.37
2019-04-30T23:02:14.680Z,40.37
2019-04-30T23:04:45.831Z,39.83
2019-04-30T23:07:16.819Z,39.70
2019-04-30T23:09:46.400Z,40.93
2019-04-30T23:12:17.129Z,42.05
2019-04-30T23:14:46.537Z,38.67
2019-04-30T23:17:17.161Z,41.92
2019-04-30T23:19:49.495Z,42.30
2019-04-30T23:22:20.608Z,43.50
2019-04-30T23:24:52.882Z,46.53
2019-04-30T23:27:23.711Z,44.67
2019-04-30T23:30:03.110Z,40.30
2019-04-30T23:32:24.812Z,39.63
2019-04-30T23:34:54.223Z,45.37
2019-04-30T23:37:24.696Z,42.60
2019-04-30T23:39:54.512Z,43.73
2019-04-30T23:42:24.045Z,44.15
2019-04-30T23:44:53.468Z,44.20
2019-04-30T23:47:23.841Z,36.30
2019-04-30T23:49:53.374Z,44.15
2019-04-30T23:52:22.782Z,41.80
2019-04-30T23:54:53.257Z,43.07
2019-04-30T23:57:23.171Z,40.33
2019-04-30T23:59:53.191Z,44.60
